Time;durP1;ratioP1;P1;durP2;ratioP2;P2;SDS_P1;SDS_P2;PMS_P1;PMS_P2;Temp;Humidity;BMP_temperature;BMP_pressure;BME280_temperature;BME280_humidity;BME280_pressure;Samples;Min_cycle;Max_cycle;Signal;HPM_P1;HPM_P2
2023/01/25 00:01:06;;;;;;;;;;;;;;;8.76;48.12;101085.03;4479049;32;34264;-64
2023/01/25 00:03:33;;;;;;;;;;;;;;;8.73;48.30;101083.41;4478394;31;35231;-64
2023/01/25 00:06:01;;;;;;;;;;;;;;;8.77;48.19;101079.62;4477638;31;34084;-65
2023/01/25 00:08:28;;;;;;;;;;;;;;;8.80;48.40;101081.31;4471088;31;34417;-65
2023/01/25 00:10:56;;;;;;;;;;;;;;;8.78;48.56;101081.37;4473629;32;34643;-64
2023/01/25 00:13:24;;;;;;;;;;;;;;;8.74;48.39;101097.59;4471436;32;33496;-63
2023/01/25 00:15:52;;;;;;;;;;;;;;;8.68;47.99;101098.75;4475830;31;34525;-64
2023/01/25 00:18:20;;;;;;;;;;;;;;;8.62;47.98;101101.69;4473493;32;35337;-64
2023/01/25 00:20:47;;;;;;;;;;;;;;;8.64;47.74;101102.50;4476893;31;33193;-65
2023/01/25 00:23:14;;;;;;;;;;;;;;;8.59;47.60;101100.00;4480146;31;34310;-64
2023/01/25 00:25:42;;;;;;;;;;;;;;;8.62;47.56;101102.53;4470852;31;32620;-65
2023/01/25 00:28:09;;;;;;;;;;;;;;;8.62;47.38;101110.56;4477985;32;35242;-65
2023/01/25 00:30:36;;;;;;;;;;;;;;;8.68;46.90;101105.88;4470578;32;34588;-66
2023/01/25 00:33:15;;;;;;;;;;;;;;;8.63;47.06;101112.31;4481838;32;34400;-64
2023/01/25 00:35:43;;;;;;;;;;;;;;;8.66;46.52;101115.75;4472050;31;35186;-65
2023/01/25 00:38:23;;;;;;;;;;;;;;;8.54;46.75;101119.84;4461240;32;33922;-63
2023/01/25 00:40:51;;;;;;;;;;;;;;;8.28;47.54;101111.16;4453527;32;33622;-64
2023/01/25 00:43:19;;;;;;;;;;;;;;;7.63;49.05;101115.66;4473983;31;35253;-64
2023/01/25 00:45:46;;;;;;;;;;;;;;;7.77;48.83;101119.53;4477118;31;34121;-66
2023/01/25 00:48:13;;;;;;;;;;;;;;;7.22;50.11;101117.31;4476338;31;33865;-65
2023/01/25 00:50:41;;;;;;;;;;;;;;;7.65;48.98;101102.28;4480090;32;33478;-64
2023/01/25 00:53:08;;;;;;;;;;;;;;;7.64;49.37;101098.75;4477811;31;33981;-66
2023/01/25 00:55:35;;;;;;;;;;;;;;;7.66;49.13;101104.87;4462212;32;34443;-65
2023/01/25 00:58:03;;;;;;;;;;;;;;;7.70;48.81;101102.94;4475613;32;35684;-64
2023/01/25 01:00:30;;;;;;;;;;;;;;;7.89;48.27;101106.56;4474535;32;33777;-63
2023/01/25 01:02:57;;;;;;;;;;;;;;;8.02;47.51;101109.59;4475376;32;34090;-65
2023/01/25 01:05:26;;;;;;;;;;;;;;;7.39;49.73;101109.53;4472673;32;34542;-64
2023/01/25 01:07:55;;;;;;;;;;;;;;;7.61;49.10;101114.87;4475277;31;35381;-65
2023/01/25 01:10:22;;;;;;;;;;;;;;;7.36;50.00;101108.78;4476242;32;33439;-64
2023/01/25 01:12:50;;;;;;;;;;;;;;;7.54;49.50;101108.03;4473825;32;32771;-64
2023/01/25 01:15:17;;;;;;;;;;;;;;;7.66;49.00;101114.66;4475107;31;35023;-64
2023/01/25 01:17:45;;;;;;;;;;;;;;;7.65;49.68;101121.81;4473993;31;34262;-64
2023/01/25 01:20:12;;;;;;;;;;;;;;;7.73;49.20;101112.63;4477518;32;33203;-65
2023/01/25 01:22:39;;;;;;;;;;;;;;;7.82;48.52;101120.25;4478313;31;33814;-66
2023/01/25 01:25:07;;;;;;;;;;;;;;;7.82;48.80;101110.44;4467120;31;33772;-65
2023/01/25 01:27:36;;;;;;;;;;;;;;;7.89;48.76;101122.56;4478333;32;35231;-63
2023/01/25 01:30:03;;;;;;;;;;;;;;;7.98;48.46;101116.00;4481684;31;32086;-66
2023/01/25 01:32:31;;;;;;;;;;;;;;;7.93;48.37;101118.87;4478040;31;34952;-64
2023/01/25 01:34:58;;;;;;;;;;;;;;;8.04;48.14;101123.75;4476188;31;35317;-65
2023/01/25 01:37:26;;;;;;;;;;;;;;;8.23;47.35;101130.97;4480830;32;34402;-66
2023/01/25 01:39:53;;;;;;;;;;;;;;;8.27;47.16;101122.75;4474510;32;33642;-65
2023/01/25 01:42:20;;;;;;;;;;;;;;;8.24;47.18;101125.53;4476344;31;34117;-65
2023/01/25 01:44:51;;;;;;;;;;;;;;;8.22;47.40;101126.53;4471216;31;33984;-66
2023/01/25 01:47:24;;;;;;;;;;;;;;;8.13;47.79;101114.50;4474393;32;34442;-63
2023/01/25 01:49:53;;;;;;;;;;;;;;;8.08;48.14;101124.47;4456917;32;32994;-64
2023/01/25 01:52:22;;;;;;;;;;;;;;;7.97;48.37;101124.94;4460556;32;34761;-66
2023/01/25 01:54:57;;;;;;;;;;;;;;;7.99;48.11;101120.38;4479343;31;33923;-66
2023/01/25 01:57:35;;;;;;;;;;;;;;;7.88;48.99;101118.19;4477513;31;34615;-65
2023/01/25 02:00:02;;;;;;;;;;;;;;;8.03;48.45;101108.69;4482055;31;33368;-66
2023/01/25 02:02:39;;;;;;;;;;;;;;;8.06;48.48;101113.03;4482779;31;34976;-67
2023/01/25 02:05:08;;;;;;;;;;;;;;;8.03;48.67;101114.00;4482128;31;35525;-65
2023/01/25 02:07:36;;;;;;;;;;;;;;;8.21;48.50;101108.81;4460564;31;34109;-64
2023/01/25 02:10:05;;;;;;;;;;;;;;;8.06;48.87;101111.22;4476392;31;33854;-65
2023/01/25 02:12:32;;;;;;;;;;;;;;;8.24;47.65;101106.88;4470973;31;33771;-64
2023/01/25 02:15:00;;;;;;;;;;;;;;;8.26;47.39;101112.16;4479003;32;35235;-64
2023/01/25 02:17:29;;;;;;;;;;;;;;;8.16;47.51;101109.88;4483948;32;34902;-65
2023/01/25 02:20:01;;;;;;;;;;;;;;;7.74;49.27;101106.34;4462052;31;33546;-64
2023/01/25 02:22:51;;;;;;;;;;;;;;;8.02;48.70;101098.94;4481743;31;33090;-64
2023/01/25 02:25:19;;;;;;;;;;;;;;;7.90;48.90;101094.13;4466819;32;34338;-65
2023/01/25 02:27:48;;;;;;;;;;;;;;;7.38;49.76;101098.91;4477006;32;34091;-64
2023/01/25 02:30:16;;;;;;;;;;;;;;;7.91;48.60;101093.19;4461859;32;33731;-64
2023/01/25 02:32:44;;;;;;;;;;;;;;;7.97;48.12;101087.59;4482237;32;34531;-63
2023/01/25 02:35:19;;;;;;;;;;;;;;;8.21;47.51;101095.47;4472270;31;33619;-67
2023/01/25 02:37:48;;;;;;;;;;;;;;;8.31;46.66;101091.47;4471068;31;34651;-65
2023/01/25 02:40:16;;;;;;;;;;;;;;;8.08;47.34;101092.47;4477716;32;34308;-66
2023/01/25 02:42:44;;;;;;;;;;;;;;;7.97;47.62;101084.09;4479238;32;34058;-65
2023/01/25 02:45:14;;;;;;;;;;;;;;;7.97;46.96;101081.41;4460022;32;35259;-66
2023/01/25 02:47:41;;;;;;;;;;;;;;;7.58;48.53;101082.16;4466440;32;34825;-65
2023/01/25 02:50:09;;;;;;;;;;;;;;;7.68;48.08;101079.03;4473915;31;34506;-64
2023/01/25 02:52:36;;;;;;;;;;;;;;;7.72;47.47;101068.25;4475843;31;33529;-67
2023/01/25 02:55:04;;;;;;;;;;;;;;;7.40;48.60;101065.97;4473056;31;34348;-63
2023/01/25 02:57:31;;;;;;;;;;;;;;;7.64;48.03;101069.44;4473075;31;35820;-64
2023/01/25 02:59:59;;;;;;;;;;;;;;;7.57;47.67;101062.62;4476475;31;34103;-64
2023/01/25 03:02:27;;;;;;;;;;;;;;;7.50;48.59;101058.47;4474427;31;34276;-67
2023/01/25 03:04:54;;;;;;;;;;;;;;;7.66;47.01;101064.03;4476009;32;34058;-64
2023/01/25 03:07:22;;;;;;;;;;;;;;;7.56;47.23;101060.03;4477165;32;34134;-64
2023/01/25 03:09:49;;;;;;;;;;;;;;;7.49;47.04;101061.22;4477429;32;33436;-64
2023/01/25 03:12:18;;;;;;;;;;;;;;;7.50;47.30;101057.63;4476493;31;34729;-64
2023/01/25 03:14:46;;;;;;;;;;;;;;;7.18;47.88;101052.66;4474664;31;35498;-64
2023/01/25 03:17:13;;;;;;;;;;;;;;;7.46;47.11;101052.41;4475068;31;34103;-64
2023/01/25 03:19:40;;;;;;;;;;;;;;;7.41;47.30;101053.53;4478475;31;33503;-65
2023/01/25 03:22:09;;;;;;;;;;;;;;;7.44;46.97;101045.41;4467995;32;34228;-64
2023/01/25 03:24:37;;;;;;;;;;;;;;;7.31;46.99;101050.37;4469310;31;34568;-63
2023/01/25 03:27:13;;;;;;;;;;;;;;;7.28;47.12;101047.81;4475897;31;32950;-63
2023/01/25 03:29:41;;;;;;;;;;;;;;;7.33;46.75;101042.31;4480657;31;34571;-62
2023/01/25 03:32:09;;;;;;;;;;;;;;;7.18;47.07;101044.66;4482096;32;34945;-62
2023/01/25 03:34:36;;;;;;;;;;;;;;;7.25;46.82;101045.28;4475019;31;33938;-63
2023/01/25 03:37:04;;;;;;;;;;;;;;;7.13;47.40;101056.44;4478860;32;34707;-63
2023/01/25 03:39:31;;;;;;;;;;;;;;;7.05;47.06;101054.06;4474423;31;34898;-62
2023/01/25 03:41:59;;;;;;;;;;;;;;;7.12;47.44;101055.56;4474670;31;34018;-63
2023/01/25 03:44:26;;;;;;;;;;;;;;;7.11;47.02;101048.50;4476586;31;33888;-63
2023/01/25 03:46:53;;;;;;;;;;;;;;;7.02;47.70;101054.19;4478580;31;34552;-64
2023/01/25 03:49:21;;;;;;;;;;;;;;;7.26;46.68;101048.84;4472915;31;33019;-64
2023/01/25 03:51:50;;;;;;;;;;;;;;;7.10;46.94;101049.44;4473722;31;35736;-63
2023/01/25 03:54:17;;;;;;;;;;;;;;;7.05;47.26;101061.19;4471147;32;32913;-64
2023/01/25 03:56:44;;;;;;;;;;;;;;;7.30;46.01;101056.63;4476685;31;34943;-64
2023/01/25 03:59:13;;;;;;;;;;;;;;;7.07;47.26;101052.22;4479495;32;33320;-64
2023/01/25 04:01:41;;;;;;;;;;;;;;;7.14;46.91;101044.84;4467700;32;32935;-65
2023/01/25 04:04:09;;;;;;;;;;;;;;;7.22;46.60;101051.63;4477316;31;34231;-64
2023/01/25 04:06:37;;;;;;;;;;;;;;;7.26;46.60;101048.84;4479078;32;35475;-64
2023/01/25 04:09:05;;;;;;;;;;;;;;;7.28;46.66;101044.28;4463324;32;33386;-64
2023/01/25 04:11:33;;;;;;;;;;;;;;;7.14;46.45;101052.84;4467776;32;33605;-63
2023/01/25 04:14:01;;;;;;;;;;;;;;;7.11;46.58;101037.84;4470077;32;34171;-63
2023/01/25 04:16:30;;;;;;;;;;;;;;;6.85;47.19;101040.69;4477295;32;34582;-63
2023/01/25 04:18:58;;;;;;;;;;;;;;;7.07;46.12;101043.37;4479286;32;33633;-65
2023/01/25 04:21:26;;;;;;;;;;;;;;;7.04;46.54;101048.81;4478714;32;33785;-63
2023/01/25 04:23:53;;;;;;;;;;;;;;;7.14;45.63;101042.19;4473916;32;33013;-63
2023/01/25 04:26:21;;;;;;;;;;;;;;;7.25;45.10;101039.94;4474540;31;34986;-65
2023/01/25 04:28:49;;;;;;;;;;;;;;;7.18;45.21;101046.47;4478369;32;35137;-64
2023/01/25 04:31:16;;;;;;;;;;;;;;;7.08;45.38;101051.28;4477586;31;34180;-67
2023/01/25 04:33:44;;;;;;;;;;;;;;;7.05;45.73;101058.53;4472346;31;34108;-64
2023/01/25 04:36:12;;;;;;;;;;;;;;;7.07;45.95;101060.22;4471737;31;34340;-66
2023/01/25 04:38:41;;;;;;;;;;;;;;;7.14;45.70;101052.84;4482216;32;33387;-64
2023/01/25 04:41:09;;;;;;;;;;;;;;;7.04;46.21;101049.69;4480458;31;34288;-64
2023/01/25 04:43:36;;;;;;;;;;;;;;;7.01;47.41;101055.13;4471195;31;35359;-65
2023/01/25 04:46:04;;;;;;;;;;;;;;;6.90;48.16;101057.31;4480475;31;34191;-64
2023/01/25 04:48:32;;;;;;;;;;;;;;;6.94;48.67;101054.50;4479518;32;35202;-68
2023/01/25 04:50:59;;;;;;;;;;;;;;;7.41;47.44;101046.38;4475461;32;34328;-61
2023/01/25 04:53:26;;;;;;;;;;;;;;;7.49;46.62;101051.41;4472162;31;34389;-62
2023/01/25 04:55:54;;;;;;;;;;;;;;;7.52;46.16;101051.28;4474495;32;35446;-62
2023/01/25 04:58:21;;;;;;;;;;;;;;;7.58;46.63;101052.84;4468795;31;33618;-63
2023/01/25 05:00:50;;;;;;;;;;;;;;;7.71;46.63;101043.41;4466365;32;35353;-63
2023/01/25 05:03:17;;;;;;;;;;;;;;;7.50;47.54;101053.16;4472850;32;33939;-63
2023/01/25 05:05:45;;;;;;;;;;;;;;;7.76;47.13;101051.19;4469927;32;34111;-63
2023/01/25 05:08:13;;;;;;;;;;;;;;;7.78;47.05;101054.66;4474341;31;33599;-62
2023/01/25 05:10:40;;;;;;;;;;;;;;;7.79;47.11;101059.06;4475020;31;33434;-63
2023/01/25 05:13:10;;;;;;;;;;;;;;;7.95;46.76;101060.13;4469142;31;35133;-62
2023/01/25 05:15:37;;;;;;;;;;;;;;;8.16;45.94;101055.69;4471232;31;34366;-62
2023/01/25 05:18:05;;;;;;;;;;;;;;;8.03;46.20;101060.69;4473354;31;34680;-62
2023/01/25 05:20:32;;;;;;;;;;;;;;;8.06;46.46;101059.69;4469082;31;32418;-64
2023/01/25 05:23:00;;;;;;;;;;;;;;;8.06;46.69;101054.37;4476270;31;34429;-62
2023/01/25 05:28:14;;;;;;;;;;;;;;;8.17;46.43;101052.06;4471600;31;34426;-62
2023/01/25 05:30:43;;;;;;;;;;;;;;;8.20;45.57;101059.09;4472897;31;34673;-63
2023/01/25 05:33:10;;;;;;;;;;;;;;;8.08;45.82;101058.66;4468451;32;34102;-62
2023/01/25 05:35:37;;;;;;;;;;;;;;;8.20;46.07;101057.28;4469115;31;34023;-63
2023/01/25 05:38:05;;;;;;;;;;;;;;;8.05;47.13;101058.81;4473298;31;33770;-62
2023/01/25 05:40:32;;;;;;;;;;;;;;;8.14;46.80;101058.41;4471511;31;33083;-62
2023/01/25 05:43:00;;;;;;;;;;;;;;;8.10;47.43;101056.81;4469140;32;33690;-62
2023/01/25 05:45:29;;;;;;;;;;;;;;;8.03;47.79;101058.03;4474032;31;34375;-62
2023/01/25 05:47:56;;;;;;;;;;;;;;;7.96;47.42;101064.56;4473267;31;33433;-62
2023/01/25 05:50:24;;;;;;;;;;;;;;;8.24;46.86;101061.53;4468806;32;33978;-62
2023/01/25 05:52:52;;;;;;;;;;;;;;;8.40;46.82;101059.09;4474560;31;34155;-61
2023/01/25 05:55:19;;;;;;;;;;;;;;;8.37;46.59;101049.38;4471333;31;34267;-62
2023/01/25 05:57:47;;;;;;;;;;;;;;;8.42;46.10;101056.38;4471559;31;33830;-61
2023/01/25 06:00:14;;;;;;;;;;;;;;;7.75;49.03;101057.47;4470190;31;33165;-61
2023/01/25 06:02:42;;;;;;;;;;;;;;;8.11;48.13;101058.53;4476621;31;31999;-62
2023/01/25 06:05:10;;;;;;;;;;;;;;;8.24;48.24;101058.00;4467290;31;34327;-61
2023/01/25 06:07:38;;;;;;;;;;;;;;;8.54;47.10;101067.34;4469682;31;34603;-61
2023/01/25 06:10:06;;;;;;;;;;;;;;;8.49;45.85;101063.16;4467819;31;35291;-62
2023/01/25 06:12:35;;;;;;;;;;;;;;;8.62;45.37;101064.31;4471252;31;34548;-62
2023/01/25 06:15:03;;;;;;;;;;;;;;;8.37;47.09;101060.03;4471832;31;34382;-62
2023/01/25 06:17:31;;;;;;;;;;;;;;;8.62;46.47;101064.31;4477417;31;34577;-62
2023/01/25 06:19:58;;;;;;;;;;;;;;;8.72;45.67;101060.28;4476203;31;35262;-62
2023/01/25 06:22:26;;;;;;;;;;;;;;;8.41;47.10;101074.19;4476133;31;34100;-61
2023/01/25 06:24:54;;;;;;;;;;;;;;;8.40;47.52;101075.09;4474331;31;34592;-61
2023/01/25 06:27:21;;;;;;;;;;;;;;;8.58;47.40;101076.09;4471992;32;33847;-62
2023/01/25 06:29:49;;;;;;;;;;;;;;;8.82;46.22;101072.25;4470657;31;35069;-62
2023/01/25 06:32:16;;;;;;;;;;;;;;;8.75;47.04;101077.97;4471011;31;35617;-61
2023/01/25 06:34:45;;;;;;;;;;;;;;;8.72;47.06;101078.13;4476853;31;34603;-62
2023/01/25 06:37:15;;;;;;;;;;;;;;;8.85;46.61;101082.81;4475124;31;33426;-62
2023/01/25 06:39:43;;;;;;;;;;;;;;;8.69;47.13;101079.12;4474619;32;35324;-62
2023/01/25 06:42:10;;;;;;;;;;;;;;;8.82;47.45;101082.09;4474212;31;35652;-64
2023/01/25 06:44:37;;;;;;;;;;;;;;;8.86;47.64;101087.22;4476364;32;34452;-63
2023/01/25 06:47:07;;;;;;;;;;;;;;;8.97;47.26;101091.19;4474059;31;34750;-63
2023/01/25 06:49:34;;;;;;;;;;;;;;;9.09;46.87;101083.47;4479492;32;34033;-63
2023/01/25 06:52:02;;;;;;;;;;;;;;;9.05;47.45;101086.34;4472291;31;34491;-63
2023/01/25 06:54:29;;;;;;;;;;;;;;;8.90;48.11;101082.62;4472869;32;34285;-63
2023/01/25 06:56:56;;;;;;;;;;;;;;;9.10;47.37;101087.87;4475609;31;33597;-63
2023/01/25 06:59:24;;;;;;;;;;;;;;;9.15;47.54;101084.09;4471673;31;35290;-63
2023/01/25 07:01:51;;;;;;;;;;;;;;;9.26;46.97;101087.16;4475375;31;35670;-63
2023/01/25 07:04:18;;;;;;;;;;;;;;;9.16;47.63;101084.06;4470371;31;34634;-63
2023/01/25 07:06:46;;;;;;;;;;;;;;;9.17;47.38;101080.44;4480989;31;33011;-63
2023/01/25 07:09:13;;;;;;;;;;;;;;;9.30;47.15;101080.72;4472960;31;33941;-62
2023/01/25 07:11:41;;;;;;;;;;;;;;;9.30;47.17;101081.56;4474132;31;35633;-63
2023/01/25 07:14:08;;;;;;;;;;;;;;;9.31;47.40;101072.62;4471181;31;34582;-64
2023/01/25 07:16:35;;;;;;;;;;;;;;;9.02;48.44;101084.72;4476993;31;33110;-63
2023/01/25 07:19:03;;;;;;;;;;;;;;;9.18;48.23;101081.28;4476596;31;34959;-63
2023/01/25 07:21:31;;;;;;;;;;;;;;;9.08;48.77;101084.44;4477405;31;35026;-63
2023/01/25 07:23:59;;;;;;;;;;;;;;;9.28;48.45;101074.59;4474041;32;34450;-64
2023/01/25 07:26:26;;;;;;;;;;;;;;;9.32;48.45;101081.50;4472927;32;34621;-63
2023/01/25 07:28:53;;;;;;;;;;;;;;;9.36;48.19;101072.41;4466779;32;34888;-62
2023/01/25 07:31:21;;;;;;;;;;;;;;;9.52;47.93;101081.41;4450961;31;32940;-63
2023/01/25 07:33:49;;;;;;;;;;;;;;;9.27;48.24;101073.69;4468482;32;35143;-63
2023/01/25 07:36:16;;;;;;;;;;;;;;;9.28;47.96;101080.78;4474749;32;33833;-62
2023/01/25 07:38:44;;;;;;;;;;;;;;;9.39;48.12;101079.41;4474946;31;35287;-62
2023/01/25 07:41:11;;;;;;;;;;;;;;;9.36;48.21;101079.56;4471063;31;35076;-62
2023/01/25 07:43:39;;;;;;;;;;;;;;;9.49;48.37;101084.22;4472895;31;35607;-62
2023/01/25 07:46:10;;;;;;;;;;;;;;;9.57;48.09;101095.41;4472066;31;33600;-62
2023/01/25 07:48:38;;;;;;;;;;;;;;;9.69;47.41;101079.69;4474696;31;35298;-63
2023/01/25 07:51:21;;;;;;;;;;;;;;;9.51;48.00;101077.00;4473798;31;35200;-62
2023/01/25 07:53:50;;;;;;;;;;;;;;;9.22;48.49;101078.41;4470651;31;34413;-62
2023/01/25 07:56:18;;;;;;;;;;;;;;;9.53;48.08;101079.59;4468155;32;33586;-62
2023/01/25 07:58:45;;;;;;;;;;;;;;;9.67;47.87;101074.44;4470526;32;34858;-62
2023/01/25 08:01:17;;;;;;;;;;;;;;;9.59;48.17;101084.63;4470895;31;34681;-63
2023/01/25 08:03:45;;;;;;;;;;;;;;;9.57;48.66;101074.03;4472258;31;34344;-62
2023/01/25 08:06:12;;;;;;;;;;;;;;;9.82;47.98;101080.81;4475439;32;33700;-63
2023/01/25 08:08:43;;;;;;;;;;;;;;;9.82;47.62;101078.13;4473445;31;35223;-62
2023/01/25 08:11:14;;;;;;;;;;;;;;;9.39;48.57;101076.72;4469909;31;33992;-62
2023/01/25 08:13:50;;;;;;;;;;;;;;;9.72;48.21;101080.41;4468142;31;33572;-62
2023/01/25 08:16:18;;;;;;;;;;;;;;;9.71;47.91;101078.69;4469983;31;32350;-62
2023/01/25 08:18:46;;;;;;;;;;;;;;;9.77;47.77;101082.88;4473967;31;33956;-62
2023/01/25 08:21:13;;;;;;;;;;;;;;;9.43;48.38;101076.50;4474738;31;34089;-62
2023/01/25 08:23:41;;;;;;;;;;;;;;;9.86;47.58;101077.06;4474304;31;37931;-62
2023/01/25 08:26:09;;;;;;;;;;;;;;;9.89;47.82;101078.72;4470386;31;33619;-62
2023/01/25 08:28:36;;;;;;;;;;;;;;;9.82;47.94;101078.13;4471586;32;33975;-62
2023/01/25 08:31:07;;;;;;;;;;;;;;;9.83;48.16;101079.88;4464468;31;34229;-62
2023/01/25 08:33:34;;;;;;;;;;;;;;;9.76;48.58;101079.34;4466814;32;34680;-62
2023/01/25 08:36:02;;;;;;;;;;;;;;;9.78;48.44;101073.87;4472960;31;33315;-62
2023/01/25 08:38:29;;;;;;;;;;;;;;;9.73;48.76;101068.78;4472581;32;33924;-62
2023/01/25 08:41:06;;;;;;;;;;;;;;;9.80;48.98;101075.53;4475380;31;34377;-62
2023/01/25 08:43:34;;;;;;;;;;;;;;;9.90;48.61;101065.25;4465212;32;34593;-62
2023/01/25 08:46:01;;;;;;;;;;;;;;;9.49;49.65;101081.53;4472561;31;33691;-62
2023/01/25 08:48:28;;;;;;;;;;;;;;;9.75;48.72;101068.69;4475734;31;33581;-62
2023/01/25 08:50:57;;;;;;;;;;;;;;;9.83;48.20;101054.97;4476929;32;34276;-62
2023/01/25 08:53:26;;;;;;;;;;;;;;;9.73;49.07;101050.06;4478425;31;34003;-62
2023/01/25 08:55:53;;;;;;;;;;;;;;;9.82;48.91;101056.75;4477288;31;34704;-62
2023/01/25 08:58:21;;;;;;;;;;;;;;;10.00;48.41;101055.81;4476839;32;34033;-62
2023/01/25 09:00:48;;;;;;;;;;;;;;;10.15;48.35;101053.28;4474118;32;32954;-63
2023/01/25 09:03:16;;;;;;;;;;;;;;;9.97;48.41;101055.97;4477850;31;34463;-63
2023/01/25 09:05:44;;;;;;;;;;;;;;;9.88;48.70;101059.09;4482583;31;33590;-63
2023/01/25 09:08:11;;;;;;;;;;;;;;;9.82;49.01;101053.22;4478599;32;32776;-62
2023/01/25 09:10:39;;;;;;;;;;;;;;;9.87;48.99;101057.37;4481163;31;34304;-63
2023/01/25 09:13:06;;;;;;;;;;;;;;;9.79;49.14;101055.13;4476670;31;34350;-63
2023/01/25 09:15:34;;;;;;;;;;;;;;;9.71;49.06;101057.28;4474931;31;33993;-62
2023/01/25 09:18:02;;;;;;;;;;;;;;;9.43;49.20;101047.09;4473662;31;34128;-63
2023/01/25 09:20:29;;;;;;;;;;;;;;;9.26;49.78;101052.41;4479863;31;33997;-62
2023/01/25 09:23:00;;;;;;;;;;;;;;;9.42;49.70;101039.19;4471687;32;34246;-62
2023/01/25 09:25:27;;;;;;;;;;;;;;;9.17;50.50;101045.69;4477109;32;33840;-63
2023/01/25 09:27:55;;;;;;;;;;;;;;;9.02;50.50;101047.31;4467222;31;35135;-62
2023/01/25 09:30:22;;;;;;;;;;;;;;;9.02;49.92;101050.00;4476218;31;34044;-63
2023/01/25 09:33:08;;;;;;;;;;;;;;;9.02;50.22;101046.44;4477025;31;33228;-62
2023/01/25 09:35:35;;;;;;;;;;;;;;;8.95;50.31;101045.00;4477035;31;32688;-62
2023/01/25 09:38:03;;;;;;;;;;;;;;;8.78;51.07;101044.00;4480783;31;34144;-62
2023/01/25 09:40:32;;;;;;;;;;;;;;;8.85;50.61;101047.22;4476227;31;35288;-63
2023/01/25 09:43:11;;;;;;;;;;;;;;;8.86;51.03;101043.66;4466115;32;34422;-62
2023/01/25 09:45:39;;;;;;;;;;;;;;;8.88;50.47;101038.22;4461065;31;32922;-63
2023/01/25 09:48:12;;;;;;;;;;;;;;;8.52;51.67;101045.19;4480344;32;35052;-63
2023/01/25 09:50:49;;;;;;;;;;;;;;;8.26;52.54;101037.47;4463821;31;33559;-63
2023/01/25 09:53:30;;;;;;;;;;;;;;;8.42;52.56;101033.22;4469280;31;34409;-63
2023/01/25 09:56:08;;;;;;;;;;;;;;;7.95;54.04;101030.81;4479717;31;34432;-63
2023/01/25 09:58:37;;;;;;;;;;;;;;;8.21;52.76;101024.31;4459637;31;34212;-63
2023/01/25 10:01:08;;;;;;;;;;;;;;;8.26;52.02;101022.34;4478252;31;34334;-64
2023/01/25 10:03:47;;;;;;;;;;;;;;;7.91;53.83;101019.41;4462985;31;33039;-63
2023/01/25 10:06:14;;;;;;;;;;;;;;;8.22;53.02;101014.53;4458493;32;33407;-63
2023/01/25 10:09:00;;;;;;;;;;;;;;;8.27;53.01;101009.84;4474515;31;34420;-63
2023/01/25 10:11:29;;;;;;;;;;;;;;;8.78;52.12;101003.94;4472792;31;35044;-63
2023/01/25 10:13:57;;;;;;;;;;;;;;;8.71;52.52;101002.50;4478158;31;35376;-63
2023/01/25 10:16:24;;;;;;;;;;;;;;;8.75;50.96;100992.56;4483167;31;34964;-63
2023/01/25 10:18:55;;;;;;;;;;;;;;;8.30;52.12;100991.91;4475571;31;34325;-63
2023/01/25 10:21:26;;;;;;;;;;;;;;;8.31;52.21;100984.75;4457394;32;36012;-64
2023/01/25 10:23:56;;;;;;;;;;;;;;;7.40;53.92;100988.72;4470284;31;34530;-64
2023/01/25 10:26:28;;;;;;;;;;;;;;;7.97;52.92;100983.63;4477906;32;34513;-63
2023/01/25 10:29:08;;;;;;;;;;;;;;;8.39;52.46;100980.00;4476216;31;34047;-64
2023/01/25 10:31:55;;;;;;;;;;;;;;;8.10;52.51;100968.81;4475800;31;34354;-64
2023/01/25 10:34:26;;;;;;;;;;;;;;;7.99;53.03;100980.88;4473500;32;33769;-63
2023/01/25 10:36:54;;;;;;;;;;;;;;;7.08;55.70;100976.75;4459765;31;32201;-64
2023/01/25 10:39:22;;;;;;;;;;;;;;;8.10;53.39;100974.16;4475726;31;34028;-63
2023/01/25 10:41:50;;;;;;;;;;;;;;;7.33;55.05;100971.28;4478947;32;33771;-63
2023/01/25 10:44:20;;;;;;;;;;;;;;;7.37;54.71;100958.69;4461205;32;35539;-63
2023/01/25 10:46:53;;;;;;;;;;;;;;;8.02;52.87;100960.28;4478197;31;32757;-63
2023/01/25 10:49:28;;;;;;;;;;;;;;;8.21;52.03;100956.78;4474849;32;32772;-63
2023/01/25 10:51:56;;;;;;;;;;;;;;;8.13;53.25;100958.00;4482135;31;34562;-64
2023/01/25 10:54:23;;;;;;;;;;;;;;;8.48;53.14;100960.03;4476534;32;34347;-62
2023/01/25 10:56:50;;;;;;;;;;;;;;;7.81;53.74;100963.91;4479830;32;32988;-63
2023/01/25 10:59:18;;;;;;;;;;;;;;;8.16;52.40;100954.34;4471169;32;35309;-64
2023/01/25 11:01:45;;;;;;;;;;;;;;;7.00;55.25;100957.56;4475046;32;34557;-63
2023/01/25 11:04:27;;;;;;;;;;;;;;;6.95;55.92;100952.41;4473724;31;34307;-63
2023/01/25 11:06:55;;;;;;;;;;;;;;;8.26;52.97;100952.13;4473598;31;34090;-63
2023/01/25 11:09:28;;;;;;;;;;;;;;;8.50;52.61;100948.31;4476320;32;33116;-63
2023/01/25 11:11:59;;;;;;;;;;;;;;;8.49;52.36;100941.28;4475129;32;34622;-65
2023/01/25 11:14:28;;;;;;;;;;;;;;;8.10;53.74;100928.81;4478268;31;34847;-64
2023/01/25 11:16:55;;;;;;;;;;;;;;;8.59;51.87;100931.87;4459773;31;34379;-64
2023/01/25 11:19:22;;;;;;;;;;;;;;;8.38;52.56;100922.25;4482541;31;33712;-65
2023/01/25 11:21:51;;;;;;;;;;;;;;;8.74;51.24;100921.44;4480628;31;34571;-64
2023/01/25 11:24:18;;;;;;;;;;;;;;;8.77;50.55;100919.47;4471891;32;35415;-64
2023/01/25 11:26:45;;;;;;;;;;;;;;;8.09;53.08;100920.88;4476290;31;34613;-64
2023/01/25 11:29:20;;;;;;;;;;;;;;;8.00;53.64;100916.84;4476991;32;33721;-65
2023/01/25 11:31:52;;;;;;;;;;;;;;;8.57;52.02;100907.09;4470336;31;35491;-65
2023/01/25 11:34:21;;;;;;;;;;;;;;;8.38;52.89;100903.56;4465348;32;35423;-65
2023/01/25 11:37:07;;;;;;;;;;;;;;;8.74;51.21;100897.41;4459211;32;33533;-65
2023/01/25 11:39:37;;;;;;;;;;;;;;;7.91;53.86;100901.25;4470936;31;34089;-64
2023/01/25 11:42:14;;;;;;;;;;;;;;;7.73;53.59;100897.59;4478250;31;35593;-64
2023/01/25 11:44:41;;;;;;;;;;;;;;;8.26;52.21;100886.31;4470624;31;34675;-65
2023/01/25 11:47:25;;;;;;;;;;;;;;;8.28;53.87;100884.44;4476250;31;34348;-64
2023/01/25 11:49:52;;;;;;;;;;;;;;;8.79;51.15;100871.31;4457209;32;34402;-65
2023/01/25 11:52:43;;;;;;;;;;;;;;;8.66;51.08;100867.53;4479552;31;34163;-65
2023/01/25 11:55:18;;;;;;;;;;;;;;;8.69;51.67;100865.56;4455056;31;33973;-64
2023/01/25 11:58:04;;;;;;;;;;;;;;;8.45;51.91;100853.44;4471848;32;31933;-65
2023/01/25 12:00:39;;;;;;;;;;;;;;;8.86;50.87;100852.28;4471790;32;33875;-65
2023/01/25 12:03:12;;;;;;;;;;;;;;;8.97;50.30;100842.88;4453044;32;34002;-65
2023/01/25 12:05:48;;;;;;;;;;;;;;;8.82;50.41;100840.00;4472041;32;35118;-65
2023/01/25 12:08:19;;;;;;;;;;;;;;;9.15;50.41;100825.91;4476980;32;32965;-65
2023/01/25 12:10:55;;;;;;;;;;;;;;;9.04;50.86;100822.91;4476215;32;33402;-66
2023/01/25 12:13:37;;;;;;;;;;;;;;;8.65;50.77;100826.66;4457568;32;34496;-65
2023/01/25 12:16:23;;;;;;;;;;;;;;;8.19;51.77;100818.19;4478177;32;34321;-66
2023/01/25 12:19:09;;;;;;;;;;;;;;;8.52;51.12;100818.38;4473239;31;33454;-66
2023/01/25 12:21:54;;;;;;;;;;;;;;;9.33;49.60;100813.37;4472229;31;34154;-65
2023/01/25 12:24:25;;;;;;;;;;;;;;;9.24;49.49;100809.38;4471265;31;35853;-65
2023/01/25 12:27:15;;;;;;;;;;;;;;;8.85;51.21;100813.16;4473847;32;33624;-66
2023/01/25 12:29:57;;;;;;;;;;;;;;;8.81;51.39;100805.38;4464876;32;33152;-65
2023/01/25 12:32:24;;;;;;;;;;;;;;;9.09;50.74;100800.38;4459798;31;33855;-65
2023/01/25 12:34:57;;;;;;;;;;;;;;;8.99;50.24;100809.81;4474155;32;35313;-65
2023/01/25 12:37:27;;;;;;;;;;;;;;;8.80;50.69;100806.34;4452395;31;34393;-65
2023/01/25 12:39:56;;;;;;;;;;;;;;;9.26;49.94;100794.13;4460967;32;33707;-65
2023/01/25 12:42:24;;;;;;;;;;;;;;;9.33;49.40;100800.03;4460914;31;33902;-65
2023/01/25 12:44:58;;;;;;;;;;;;;;;9.33;49.51;100790.19;4465945;32;34472;-65
2023/01/25 12:47:45;;;;;;;;;;;;;;;9.11;50.34;100794.94;4455421;32;35474;-65
2023/01/25 12:50:32;;;;;;;;;;;;;;;9.02;50.11;100795.41;4481202;32;33545;-64
2023/01/25 12:53:02;;;;;;;;;;;;;;;8.99;50.64;100791.12;4475163;31;33908;-65
2023/01/25 12:55:29;;;;;;;;;;;;;;;9.30;49.44;100789.50;4469260;31;35495;-63
2023/01/25 12:58:15;;;;;;;;;;;;;;;9.06;50.21;100787.19;4472894;32;34281;-65
2023/01/25 13:01:00;;;;;;;;;;;;;;;8.24;51.95;100789.47;4473663;31;33458;-64
2023/01/25 13:03:30;;;;;;;;;;;;;;;8.53;51.79;100790.75;4455151;32;33498;-64